sensor_id;sensor_type;location;lat;lon;timestamp;temperature;humidity
3954;DHT22;1991;48.682;9.030;2023-03-04T00:02:15;0.00;99.90
3954;DHT22;1991;48.682;9.030;2023-03-04T00:04:41;0.00;99.90
3954;DHT22;1991;48.682;9.030;2023-03-04T00:07:06;0.00;99.90
3954;DHT22;1991;48.682;9.030;2023-03-04T00:09:32;0.00;99.90
3954;DHT22;1991;48.682;9.030;2023-03-04T00:11:57;0.00;99.90
3954;DHT22;1991;48.682;9.030;2023-03-04T00:14:23;-0.10;99.90
3954;DHT22;1991;48.682;9.030;2023-03-04T00:16:48;-0.10;99.90
3954;DHT22;1991;48.682;9.030;2023-03-04T00:19:14;-0.10;99.90
3954;DHT22;1991;48.682;9.030;2023-03-04T00:21:40;-0.10;99.90
3954;DHT22;1991;48.682;9.030;2023-03-04T00:24:05;-0.20;99.90
3954;DHT22;1991;48.682;9.030;2023-03-04T00:26:31;-0.20;99.90
3954;DHT22;1991;48.682;9.030;2023-03-04T00:28:57;-0.20;99.90
3954;DHT22;1991;48.682;9.030;2023-03-04T00:31:22;-0.20;99.90
3954;DHT22;1991;48.682;9.030;2023-03-04T00:33:48;-0.30;99.90
3954;DHT22;1991;48.682;9.030;2023-03-04T00:36:14;-0.30;99.90
3954;DHT22;1991;48.682;9.030;2023-03-04T00:38:39;-0.30;99.90
3954;DHT22;1991;48.682;9.030;2023-03-04T00:41:05;-0.30;99.90
3954;DHT22;1991;48.682;9.030;2023-03-04T00:43:31;-0.30;99.90
3954;DHT22;1991;48.682;9.030;2023-03-04T00:45:56;-0.40;99.90
3954;DHT22;1991;48.682;9.030;2023-03-04T00:48:22;-0.40;99.90
3954;DHT22;1991;48.682;9.030;2023-03-04T00:50:47;-0.40;99.90
3954;DHT22;1991;48.682;9.030;2023-03-04T00:53:13;-0.40;99.90
3954;DHT22;1991;48.682;9.030;2023-03-04T00:55:39;-0.40;99.90
3954;DHT22;1991;48.682;9.030;2023-03-04T00:58:04;-0.50;99.90
3954;DHT22;1991;48.682;9.030;2023-03-04T01:00:30;-0.50;99.90
3954;DHT22;1991;48.682;9.030;2023-03-04T01:02:55;-0.50;99.90
3954;DHT22;1991;48.682;9.030;2023-03-04T01:05:21;-0.60;99.90
3954;DHT22;1991;48.682;9.030;2023-03-04T01:07:47;-0.60;99.90
3954;DHT22;1991;48.682;9.030;2023-03-04T01:10:14;-0.60;99.90
3954;DHT22;1991;48.682;9.030;2023-03-04T01:12:40;-0.60;99.90
3954;DHT22;1991;48.682;9.030;2023-03-04T01:15:07;-0.70;99.90
3954;DHT22;1991;48.682;9.030;2023-03-04T01:17:33;-0.70;99.90
3954;DHT22;1991;48.682;9.030;2023-03-04T01:19:58;-0.70;99.90
3954;DHT22;1991;48.682;9.030;2023-03-04T01:22:24;-0.70;99.90
3954;DHT22;1991;48.682;9.030;2023-03-04T01:24:50;-0.70;99.90
3954;DHT22;1991;48.682;9.030;2023-03-04T01:27:15;-0.70;99.90
3954;DHT22;1991;48.682;9.030;2023-03-04T01:29:41;-0.80;99.90
3954;DHT22;1991;48.682;9.030;2023-03-04T01:32:07;-0.80;99.90
3954;DHT22;1991;48.682;9.030;2023-03-04T01:34:32;-0.90;99.90
3954;DHT22;1991;48.682;9.030;2023-03-04T01:36:58;-0.90;99.90
3954;DHT22;1991;48.682;9.030;2023-03-04T01:39:24;-0.90;99.90
3954;DHT22;1991;48.682;9.030;2023-03-04T01:41:49;-0.90;99.90
3954;DHT22;1991;48.682;9.030;2023-03-04T01:44:15;-1.00;99.90
3954;DHT22;1991;48.682;9.030;2023-03-04T01:46:44;-1.00;99.90
3954;DHT22;1991;48.682;9.030;2023-03-04T01:49:13;-1.00;99.90
3954;DHT22;1991;48.682;9.030;2023-03-04T01:51:46;-1.10;99.90
3954;DHT22;1991;48.682;9.030;2023-03-04T01:54:13;-1.00;99.90
3954;DHT22;1991;48.682;9.030;2023-03-04T01:56:39;-1.10;99.90
3954;DHT22;1991;48.682;9.030;2023-03-04T02:01:32;-1.10;99.90
3954;DHT22;1991;48.682;9.030;2023-03-04T02:03:57;-1.10;99.90
3954;DHT22;1991;48.682;9.030;2023-03-04T02:06:23;-1.10;99.90
3954;DHT22;1991;48.682;9.030;2023-03-04T02:08:49;-1.10;99.90
3954;DHT22;1991;48.682;9.030;2023-03-04T02:11:14;-1.10;99.90
3954;DHT22;1991;48.682;9.030;2023-03-04T02:13:40;-1.10;99.90
3954;DHT22;1991;48.682;9.030;2023-03-04T02:16:06;-1.10;99.90
3954;DHT22;1991;48.682;9.030;2023-03-04T02:18:31;-1.20;99.90
3954;DHT22;1991;48.682;9.030;2023-03-04T02:21:23;-1.20;99.90
3954;DHT22;1991;48.682;9.030;2023-03-04T02:26:37;-1.30;99.90
3954;DHT22;1991;48.682;9.030;2023-03-04T02:29:06;-1.30;99.90
3954;DHT22;1991;48.682;9.030;2023-03-04T02:31:51;-1.30;99.90
3954;DHT22;1991;48.682;9.030;2023-03-04T02:34:39;-1.30;99.90
3954;DHT22;1991;48.682;9.030;2023-03-04T02:37:08;-1.30;99.90
3954;DHT22;1991;48.682;9.030;2023-03-04T02:39:39;-1.30;99.90
3954;DHT22;1991;48.682;9.030;2023-03-04T02:42:05;-1.40;99.90
3954;DHT22;1991;48.682;9.030;2023-03-04T02:44:35;-1.40;99.90
3954;DHT22;1991;48.682;9.030;2023-03-04T02:47:05;-1.40;99.90
3954;DHT22;1991;48.682;9.030;2023-03-04T02:49:31;-1.40;99.90
3954;DHT22;1991;48.682;9.030;2023-03-04T02:54:34;-1.50;99.90
3954;DHT22;1991;48.682;9.030;2023-03-04T02:57:02;-1.50;99.90
3954;DHT22;1991;48.682;9.030;2023-03-04T02:59:29;-1.50;99.90
3954;DHT22;1991;48.682;9.030;2023-03-04T03:01:54;-1.50;99.90
3954;DHT22;1991;48.682;9.030;2023-03-04T03:04:21;-1.50;99.90
3954;DHT22;1991;48.682;9.030;2023-03-04T03:06:47;-1.50;99.90
3954;DHT22;1991;48.682;9.030;2023-03-04T03:09:12;-1.60;99.90
3954;DHT22;1991;48.682;9.030;2023-03-04T03:11:38;-1.60;99.90
3954;DHT22;1991;48.682;9.030;2023-03-04T03:14:04;-1.60;99.90
3954;DHT22;1991;48.682;9.030;2023-03-04T03:16:30;-1.60;99.90
3954;DHT22;1991;48.682;9.030;2023-03-04T03:18:55;-1.70;99.90
3954;DHT22;1991;48.682;9.030;2023-03-04T03:21:21;-1.60;99.90
3954;DHT22;1991;48.682;9.030;2023-03-04T03:23:47;-1.70;99.90
3954;DHT22;1991;48.682;9.030;2023-03-04T03:26:12;-1.70;99.90
3954;DHT22;1991;48.682;9.030;2023-03-04T03:28:38;-1.70;99.90
3954;DHT22;1991;48.682;9.030;2023-03-04T03:31:04;-1.70;99.90
3954;DHT22;1991;48.682;9.030;2023-03-04T03:33:30;-1.70;99.90
3954;DHT22;1991;48.682;9.030;2023-03-04T03:35:56;-1.70;99.90
3954;DHT22;1991;48.682;9.030;2023-03-04T03:38:21;-1.70;99.90
3954;DHT22;1991;48.682;9.030;2023-03-04T03:40:47;-1.70;99.90
3954;DHT22;1991;48.682;9.030;2023-03-04T03:43:12;-1.80;99.90
3954;DHT22;1991;48.682;9.030;2023-03-04T03:45:38;-1.80;99.90
3954;DHT22;1991;48.682;9.030;2023-03-04T03:48:04;-1.80;99.90
3954;DHT22;1991;48.682;9.030;2023-03-04T03:50:29;-1.80;99.90
3954;DHT22;1991;48.682;9.030;2023-03-04T03:52:55;-1.80;99.90
3954;DHT22;1991;48.682;9.030;2023-03-04T03:55:21;-1.80;99.90
3954;DHT22;1991;48.682;9.030;2023-03-04T03:57:47;-1.80;99.90
3954;DHT22;1991;48.682;9.030;2023-03-04T04:00:13;-1.80;99.90
3954;DHT22;1991;48.682;9.030;2023-03-04T04:02:39;-1.80;99.90
3954;DHT22;1991;48.682;9.030;2023-03-04T04:05:06;-1.90;99.90
3954;DHT22;1991;48.682;9.030;2023-03-04T04:07:32;-1.90;99.90
3954;DHT22;1991;48.682;9.030;2023-03-04T04:09:58;-1.90;99.90
3954;DHT22;1991;48.682;9.030;2023-03-04T04:12:23;-1.90;99.90
3954;DHT22;1991;48.682;9.030;2023-03-04T04:14:49;-2.00;99.90
3954;DHT22;1991;48.682;9.030;2023-03-04T04:17:15;-2.00;99.90
3954;DHT22;1991;48.682;9.030;2023-03-04T04:19:40;-2.00;99.90
3954;DHT22;1991;48.682;9.030;2023-03-04T04:22:08;-2.00;99.90
3954;DHT22;1991;48.682;9.030;2023-03-04T04:24:37;-2.00;99.90
3954;DHT22;1991;48.682;9.030;2023-03-04T04:27:03;-2.10;99.90
3954;DHT22;1991;48.682;9.030;2023-03-04T04:29:29;-2.10;99.90
3954;DHT22;1991;48.682;9.030;2023-03-04T04:31:54;-2.10;99.90
3954;DHT22;1991;48.682;9.030;2023-03-04T04:34:20;-2.20;99.90
3954;DHT22;1991;48.682;9.030;2023-03-04T04:36:45;-2.20;99.90
3954;DHT22;1991;48.682;9.030;2023-03-04T04:39:11;-2.20;99.90
3954;DHT22;1991;48.682;9.030;2023-03-04T04:41:40;-2.30;99.90
3954;DHT22;1991;48.682;9.030;2023-03-04T04:44:06;-2.30;99.90
3954;DHT22;1991;48.682;9.030;2023-03-04T04:46:32;-2.30;99.90
3954;DHT22;1991;48.682;9.030;2023-03-04T04:48:57;-2.30;99.90
3954;DHT22;1991;48.682;9.030;2023-03-04T04:51:23;-2.30;99.90
3954;DHT22;1991;48.682;9.030;2023-03-04T04:53:49;-2.30;99.90
3954;DHT22;1991;48.682;9.030;2023-03-04T04:56:18;-2.30;99.90
3954;DHT22;1991;48.682;9.030;2023-03-04T04:58:45;-2.40;99.90
3954;DHT22;1991;48.682;9.030;2023-03-04T05:01:12;-2.40;99.90
3954;DHT22;1991;48.682;9.030;2023-03-04T05:03:39;-2.40;99.90
3954;DHT22;1991;48.682;9.030;2023-03-04T05:06:07;-2.40;99.90
3954;DHT22;1991;48.682;9.030;2023-03-04T05:08:33;-2.40;99.90
3954;DHT22;1991;48.682;9.030;2023-03-04T05:10:59;-2.40;99.90
3954;DHT22;1991;48.682;9.030;2023-03-04T05:13:25;-2.50;99.90
3954;DHT22;1991;48.682;9.030;2023-03-04T05:15:52;-2.50;99.90
3954;DHT22;1991;48.682;9.030;2023-03-04T05:18:19;-2.50;99.90
3954;DHT22;1991;48.682;9.030;2023-03-04T05:20:52;-2.50;99.90
3954;DHT22;1991;48.682;9.030;2023-03-04T05:23:18;-2.50;99.90
3954;DHT22;1991;48.682;9.030;2023-03-04T05:25:44;-2.50;99.90
3954;DHT22;1991;48.682;9.030;2023-03-04T05:28:10;-2.60;99.90
3954;DHT22;1991;48.682;9.030;2023-03-04T05:30:37;-2.60;99.90
3954;DHT22;1991;48.682;9.030;2023-03-04T05:33:04;-2.60;99.90
3954;DHT22;1991;48.682;9.030;2023-03-04T05:35:29;-2.70;99.90
3954;DHT22;1991;48.682;9.030;2023-03-04T05:37:55;-2.70;99.90
3954;DHT22;1991;48.682;9.030;2023-03-04T05:40:20;-2.70;99.90
3954;DHT22;1991;48.682;9.030;2023-03-04T05:42:48;-2.70;99.90
3954;DHT22;1991;48.682;9.030;2023-03-04T05:45:14;-2.80;99.90
3954;DHT22;1991;48.682;9.030;2023-03-04T05:47:39;-2.80;99.90
3954;DHT22;1991;48.682;9.030;2023-03-04T05:50:05;-2.80;99.90
3954;DHT22;1991;48.682;9.030;2023-03-04T05:52:31;-2.80;99.90
3954;DHT22;1991;48.682;9.030;2023-03-04T05:54:56;-2.80;99.90
3954;DHT22;1991;48.682;9.030;2023-03-04T05:57:22;-2.90;99.90
3954;DHT22;1991;48.682;9.030;2023-03-04T05:59:47;-2.90;99.90
3954;DHT22;1991;48.682;9.030;2023-03-04T06:02:13;-2.90;99.90
3954;DHT22;1991;48.682;9.030;2023-03-04T06:04:39;-2.90;99.90
3954;DHT22;1991;48.682;9.030;2023-03-04T06:07:04;-2.90;99.90
3954;DHT22;1991;48.682;9.030;2023-03-04T06:09:30;-2.90;99.90
3954;DHT22;1991;48.682;9.030;2023-03-04T06:11:55;-2.80;99.90
3954;DHT22;1991;48.682;9.030;2023-03-04T06:14:21;-2.80;99.90
3954;DHT22;1991;48.682;9.030;2023-03-04T06:16:46;-2.80;99.90
3954;DHT22;1991;48.682;9.030;2023-03-04T06:19:12;-2.80;99.90
3954;DHT22;1991;48.682;9.030;2023-03-04T06:21:37;-2.80;99.90
3954;DHT22;1991;48.682;9.030;2023-03-04T06:24:03;-2.80;99.90
3954;DHT22;1991;48.682;9.030;2023-03-04T06:26:29;-2.70;99.90
3954;DHT22;1991;48.682;9.030;2023-03-04T06:28:54;-2.70;99.90
3954;DHT22;1991;48.682;9.030;2023-03-04T06:31:21;-2.60;99.90
3954;DHT22;1991;48.682;9.030;2023-03-04T06:33:47;-2.50;99.90
3954;DHT22;1991;48.682;9.030;2023-03-04T06:36:13;-2.50;99.90
3954;DHT22;1991;48.682;9.030;2023-03-04T06:38:38;-2.40;99.90
3954;DHT22;1991;48.682;9.030;2023-03-04T06:41:08;-2.30;99.90
3954;DHT22;1991;48.682;9.030;2023-03-04T06:43:35;-2.20;99.90
3954;DHT22;1991;48.682;9.030;2023-03-04T06:46:00;-2.10;99.90
3954;DHT22;1991;48.682;9.030;2023-03-04T06:48:27;-2.00;99.90
3954;DHT22;1991;48.682;9.030;2023-03-04T06:50:52;-1.90;99.90
3954;DHT22;1991;48.682;9.030;2023-03-04T06:53:18;-1.80;99.90
3954;DHT22;1991;48.682;9.030;2023-03-04T06:55:43;-1.60;99.90
3954;DHT22;1991;48.682;9.030;2023-03-04T06:58:09;-1.60;99.90
3954;DHT22;1991;48.682;9.030;2023-03-04T07:00:35;-1.40;99.90
3954;DHT22;1991;48.682;9.030;2023-03-04T07:03:00;-1.20;99.90
3954;DHT22;1991;48.682;9.030;2023-03-04T07:05:26;-1.00;99.90
3954;DHT22;1991;48.682;9.030;2023-03-04T07:07:52;-0.80;99.90
3954;DHT22;1991;48.682;9.030;2023-03-04T07:10:18;-0.60;99.90
3954;DHT22;1991;48.682;9.030;2023-03-04T07:12:44;-0.40;99.90
3954;DHT22;1991;48.682;9.030;2023-03-04T07:15:09;-0.10;99.90
3954;DHT22;1991;48.682;9.030;2023-03-04T07:17:35;0.10;99.90
3954;DHT22;1991;48.682;9.030;2023-03-04T07:20:01;0.40;99.90
3954;DHT22;1991;48.682;9.030;2023-03-04T07:22:27;0.70;99.90
3954;DHT22;1991;48.682;9.030;2023-03-04T07:24:52;1.00;99.90
3954;DHT22;1991;48.682;9.030;2023-03-04T07:27:18;1.10;99.90
3954;DHT22;1991;48.682;9.030;2023-03-04T07:29:43;1.20;99.90
3954;DHT22;1991;48.682;9.030;2023-03-04T07:32:09;1.40;99.90
3954;DHT22;1991;48.682;9.030;2023-03-04T07:34:35;1.50;99.90
3954;DHT22;1991;48.682;9.030;2023-03-04T07:37:00;1.50;99.90
3954;DHT22;1991;48.682;9.030;2023-03-04T07:39:26;1.70;99.90
3954;DHT22;1991;48.682;9.030;2023-03-04T07:41:51;1.80;99.90
3954;DHT22;1991;48.682;9.030;2023-03-04T07:44:17;1.80;99.90
3954;DHT22;1991;48.682;9.030;2023-03-04T07:46:43;1.90;99.90
3954;DHT22;1991;48.682;9.030;2023-03-04T07:49:11;2.00;99.90
3954;DHT22;1991;48.682;9.030;2023-03-04T07:51:36;2.00;99.90
3954;DHT22;1991;48.682;9.030;2023-03-04T07:54:02;2.00;99.90
3954;DHT22;1991;48.682;9.030;2023-03-04T07:56:30;2.10;99.90
3954;DHT22;1991;48.682;9.030;2023-03-04T07:58:57;2.00;99.90
3954;DHT22;1991;48.682;9.030;2023-03-04T08:01:25;2.10;99.90
3954;DHT22;1991;48.682;9.030;2023-03-04T08:03:51;2.20;99.90
3954;DHT22;1991;48.682;9.030;2023-03-04T08:06:19;2.30;99.90
3954;DHT22;1991;48.682;9.030;2023-03-04T08:08:45;2.50;99.90
3954;DHT22;1991;48.682;9.030;2023-03-04T08:11:16;2.50;99.90
3954;DHT22;1991;48.682;9.030;2023-03-04T08:13:42;2.30;99.90
3954;DHT22;1991;48.682;9.030;2023-03-04T08:16:11;2.30;99.90
3954;DHT22;1991;48.682;9.030;2023-03-04T08:18:40;2.30;99.90
3954;DHT22;1991;48.682;9.030;2023-03-04T08:21:10;2.30;99.90
3954;DHT22;1991;48.682;9.030;2023-03-04T08:23:37;2.20;99.90
3954;DHT22;1991;48.682;9.030;2023-03-04T08:26:07;2.10;99.90
3954;DHT22;1991;48.682;9.030;2023-03-04T08:28:33;2.10;99.90
3954;DHT22;1991;48.682;9.030;2023-03-04T08:30:59;2.00;99.90
3954;DHT22;1991;48.682;9.030;2023-03-04T08:33:24;2.00;99.90
3954;DHT22;1991;48.682;9.030;2023-03-04T08:35:50;2.00;99.90
3954;DHT22;1991;48.682;9.030;2023-03-04T08:38:15;2.10;99.90
3954;DHT22;1991;48.682;9.030;2023-03-04T08:40:41;2.10;99.90
3954;DHT22;1991;48.682;9.030;2023-03-04T08:43:06;2.20;99.90
3954;DHT22;1991;48.682;9.030;2023-03-04T08:45:32;2.20;99.90
3954;DHT22;1991;48.682;9.030;2023-03-04T08:47:57;2.40;99.90
3954;DHT22;1991;48.682;9.030;2023-03-04T08:50:23;2.40;99.90
3954;DHT22;1991;48.682;9.030;2023-03-04T08:52:49;2.40;99.90
3954;DHT22;1991;48.682;9.030;2023-03-04T08:55:14;2.30;99.90
3954;DHT22;1991;48.682;9.030;2023-03-04T08:57:40;2.10;99.90
3954;DHT22;1991;48.682;9.030;2023-03-04T09:00:06;2.10;99.90
3954;DHT22;1991;48.682;9.030;2023-03-04T09:02:32;2.10;99.90
3954;DHT22;1991;48.682;9.030;2023-03-04T09:04:57;2.10;99.90
3954;DHT22;1991;48.682;9.030;2023-03-04T09:07:23;2.20;99.90
3954;DHT22;1991;48.682;9.030;2023-03-04T09:09:48;2.20;99.90
3954;DHT22;1991;48.682;9.030;2023-03-04T09:12:14;1.90;99.90
3954;DHT22;1991;48.682;9.030;2023-03-04T09:14:40;2.00;99.90
3954;DHT22;1991;48.682;9.030;2023-03-04T09:17:05;2.20;99.90
3954;DHT22;1991;48.682;9.030;2023-03-04T09:19:31;2.30;99.90
3954;DHT22;1991;48.682;9.030;2023-03-04T09:21:57;2.40;99.90
3954;DHT22;1991;48.682;9.030;2023-03-04T09:24:24;2.40;99.90
3954;DHT22;1991;48.682;9.030;2023-03-04T09:26:51;2.50;99.90
3954;DHT22;1991;48.682;9.030;2023-03-04T09:29:17;2.60;99.90
3954;DHT22;1991;48.682;9.030;2023-03-04T09:31:42;2.60;99.90
3954;DHT22;1991;48.682;9.030;2023-03-04T09:34:08;2.60;99.90
3954;DHT22;1991;48.682;9.030;2023-03-04T09:36:34;2.70;99.90
3954;DHT22;1991;48.682;9.030;2023-03-04T09:39:00;2.70;99.90
3954;DHT22;1991;48.682;9.030;2023-03-04T09:41:40;2.80;99.90
3954;DHT22;1991;48.682;9.030;2023-03-04T09:44:30;2.90;99.90
3954;DHT22;1991;48.682;9.030;2023-03-04T09:47:00;3.00;99.90
3954;DHT22;1991;48.682;9.030;2023-03-04T09:49:27;3.10;99.90
3954;DHT22;1991;48.682;9.030;2023-03-04T09:52:17;4.10;99.90
3954;DHT22;1991;48.682;9.030;2023-03-04T09:55:17;3.30;99.90
3954;DHT22;1991;48.682;9.030;2023-03-04T09:58:09;3.50;99.90
3954;DHT22;1991;48.682;9.030;2023-03-04T10:00:44;3.50;99.90
3954;DHT22;1991;48.682;9.030;2023-03-04T10:06:00;3.80;99.90
3954;DHT22;1991;48.682;9.030;2023-03-04T10:11:37;4.00;99.90
3954;DHT22;1991;48.682;9.030;2023-03-04T10:16:54;4.80;98.20
3954;DHT22;1991;48.682;9.030;2023-03-04T10:22:48;4.90;96.50
3954;DHT22;1991;48.682;9.030;2023-03-04T10:25:24;4.90;94.90
3954;DHT22;1991;48.682;9.030;2023-03-04T10:27:58;4.80;95.00
3954;DHT22;1991;48.682;9.030;2023-03-04T10:33:19;4.90;94.50
3954;DHT22;1991;48.682;9.030;2023-03-04T10:35:58;5.10;93.70
3954;DHT22;1991;48.682;9.030;2023-03-04T10:38:25;5.30;93.30
3954;DHT22;1991;48.682;9.030;2023-03-04T10:40:53;5.50;92.50
3954;DHT22;1991;48.682;9.030;2023-03-04T10:43:20;5.70;91.20
3954;DHT22;1991;48.682;9.030;2023-03-04T10:45:47;5.90;90.70
3954;DHT22;1991;48.682;9.030;2023-03-04T10:48:42;6.30;89.00
3954;DHT22;1991;48.682;9.030;2023-03-04T10:51:28;6.60;85.80
3954;DHT22;1991;48.682;9.030;2023-03-04T10:54:09;6.90;85.00
3954;DHT22;1991;48.682;9.030;2023-03-04T10:56:42;7.60;81.60
3954;DHT22;1991;48.682;9.030;2023-03-04T10:59:39;8.30;76.60
3954;DHT22;1991;48.682;9.030;2023-03-04T11:04:51;11.40;60.80
3954;DHT22;1991;48.682;9.030;2023-03-04T11:07:19;11.20;60.10
3954;DHT22;1991;48.682;9.030;2023-03-04T11:09:45;10.10;61.00
3954;DHT22;1991;48.682;9.030;2023-03-04T11:12:13;9.30;62.60
3954;DHT22;1991;48.682;9.030;2023-03-04T11:14:50;9.40;63.30
3954;DHT22;1991;48.682;9.030;2023-03-04T11:22:53;9.10;62.80
3954;DHT22;1991;48.682;9.030;2023-03-04T11:25:28;9.30;63.10
3954;DHT22;1991;48.682;9.030;2023-03-04T11:27:58;9.00;63.30
3954;DHT22;1991;48.682;9.030;2023-03-04T11:30:32;8.90;63.10
3954;DHT22;1991;48.682;9.030;2023-03-04T11:33:21;9.10;63.80
3954;DHT22;1991;48.682;9.030;2023-03-04T11:35:58;9.20;62.60
3954;DHT22;1991;48.682;9.030;2023-03-04T11:38:40;8.60;63.60
3954;DHT22;1991;48.682;9.030;2023-03-04T11:41:58;8.60;64.90
3954;DHT22;1991;48.682;9.030;2023-03-04T11:44:07;10.70;63.90
3954;DHT22;1991;48.682;9.030;2023-03-04T11:47:05;11.40;57.60
3954;DHT22;1991;48.682;9.030;2023-03-04T11:58:12;8.70;61.00
3954;DHT22;1991;48.682;9.030;2023-03-04T12:00:56;8.00;64.20
3954;DHT22;1991;48.682;9.030;2023-03-04T12:07:10;7.90;65.90
3954;DHT22;1991;48.682;9.030;2023-03-04T12:22:51;9.00;62.10
3954;DHT22;1991;48.682;9.030;2023-03-04T12:28:25;9.80;58.90
3954;DHT22;1991;48.682;9.030;2023-03-04T12:36:20;9.80;60.90
3954;DHT22;1991;48.682;9.030;2023-03-04T12:41:44;11.10;57.20
3954;DHT22;1991;48.682;9.030;2023-03-04T12:44:19;11.00;55.80
3954;DHT22;1991;48.682;9.030;2023-03-04T12:49:53;10.00;57.00
3954;DHT22;1991;48.682;9.030;2023-03-04T12:55:09;10.60;56.40
3954;DHT22;1991;48.682;9.030;2023-03-04T12:57:35;10.20;55.90
3954;DHT22;1991;48.682;9.030;2023-03-04T13:02:47;9.90;57.10
3954;DHT22;1991;48.682;9.030;2023-03-04T13:10:36;11.00;54.20
3954;DHT22;1991;48.682;9.030;2023-03-04T13:13:02;11.20;53.20
3954;DHT22;1991;48.682;9.030;2023-03-04T13:15:34;10.80;53.80
3954;DHT22;1991;48.682;9.030;2023-03-04T13:20:41;15.30;48.30
3954;DHT22;1991;48.682;9.030;2023-03-04T13:25:39;18.80;38.90
3954;DHT22;1991;48.682;9.030;2023-03-04T13:43:41;11.00;51.00
3954;DHT22;1991;48.682;9.030;2023-03-04T13:54:31;9.80;54.60
3954;DHT22;1991;48.682;9.030;2023-03-04T13:59:53;9.60;55.60
3954;DHT22;1991;48.682;9.030;2023-03-04T14:02:21;9.30;55.20
3954;DHT22;1991;48.682;9.030;2023-03-04T14:07:35;8.90;57.50
3954;DHT22;1991;48.682;9.030;2023-03-04T14:10:19;9.00;57.50
3954;DHT22;1991;48.682;9.030;2023-03-04T14:12:50;8.80;57.40
3954;DHT22;1991;48.682;9.030;2023-03-04T14:15:24;8.60;57.20
3954;DHT22;1991;48.682;9.030;2023-03-04T14:17:52;8.60;58.20
3954;DHT22;1991;48.682;9.030;2023-03-04T14:20:26;8.20;58.80
3954;DHT22;1991;48.682;9.030;2023-03-04T14:22:53;7.80;59.60
3954;DHT22;1991;48.682;9.030;2023-03-04T14:25:20;7.70;60.20
3954;DHT22;1991;48.682;9.030;2023-03-04T14:27:46;7.50;60.70
3954;DHT22;1991;48.682;9.030;2023-03-04T14:30:26;7.10;61.70
3954;DHT22;1991;48.682;9.030;2023-03-04T14:32:55;6.80;63.20
3954;DHT22;1991;48.682;9.030;2023-03-04T14:35:25;6.80;63.60
3954;DHT22;1991;48.682;9.030;2023-03-04T14:38:04;6.90;63.40
3954;DHT22;1991;48.682;9.030;2023-03-04T14:40:52;6.90;63.60
3954;DHT22;1991;48.682;9.030;2023-03-04T14:43:21;6.70;63.70
3954;DHT22;1991;48.682;9.030;2023-03-04T14:45:50;6.70;64.30
3954;DHT22;1991;48.682;9.030;2023-03-04T14:48:26;6.60;65.00
3954;DHT22;1991;48.682;9.030;2023-03-04T14:50:54;6.90;64.90
3954;DHT22;1991;48.682;9.030;2023-03-04T14:53:22;6.90;64.30
3954;DHT22;1991;48.682;9.030;2023-03-04T14:55:56;6.80;64.70
3954;DHT22;1991;48.682;9.030;2023-03-04T14:58:25;6.60;64.60
3954;DHT22;1991;48.682;9.030;2023-03-04T15:01:13;6.30;66.00
3954;DHT22;1991;48.682;9.030;2023-03-04T15:03:41;6.10;66.80
3954;DHT22;1991;48.682;9.030;2023-03-04T15:06:17;5.80;67.40
3954;DHT22;1991;48.682;9.030;2023-03-04T15:08:44;5.60;69.10
3954;DHT22;1991;48.682;9.030;2023-03-04T15:11:21;5.30;70.10
3954;DHT22;1991;48.682;9.030;2023-03-04T15:13:51;5.00;70.90
3954;DHT22;1991;48.682;9.030;2023-03-04T15:16:22;4.80;72.10
3954;DHT22;1991;48.682;9.030;2023-03-04T15:21:30;4.70;73.80
3954;DHT22;1991;48.682;9.030;2023-03-04T15:23:56;4.60;74.40
3954;DHT22;1991;48.682;9.030;2023-03-04T15:26:22;4.40;75.10
3954;DHT22;1991;48.682;9.030;2023-03-04T15:28:48;4.30;75.90
3954;DHT22;1991;48.682;9.030;2023-03-04T15:31:19;4.20;76.70
3954;DHT22;1991;48.682;9.030;2023-03-04T15:33:45;4.10;77.40
3954;DHT22;1991;48.682;9.030;2023-03-04T15:36:17;4.10;77.90
3954;DHT22;1991;48.682;9.030;2023-03-04T15:38:46;4.10;78.40
3954;DHT22;1991;48.682;9.030;2023-03-04T15:41:21;3.90;79.40
3954;DHT22;1991;48.682;9.030;2023-03-04T15:43:46;3.80;79.60
3954;DHT22;1991;48.682;9.030;2023-03-04T15:46:12;3.60;81.30
3954;DHT22;1991;48.682;9.030;2023-03-04T15:48:38;3.70;82.30
3954;DHT22;1991;48.682;9.030;2023-03-04T15:51:06;3.60;82.60
3954;DHT22;1991;48.682;9.030;2023-03-04T15:53:50;3.60;82.90
3954;DHT22;1991;48.682;9.030;2023-03-04T15:56:19;3.60;83.80
3954;DHT22;1991;48.682;9.030;2023-03-04T15:58:53;3.60;84.10
3954;DHT22;1991;48.682;9.030;2023-03-04T16:01:19;3.40;84.70
3954;DHT22;1991;48.682;9.030;2023-03-04T16:03:45;3.40;85.60
3954;DHT22;1991;48.682;9.030;2023-03-04T16:06:13;3.30;87.70
3954;DHT22;1991;48.682;9.030;2023-03-04T16:08:40;3.30;88.00
3954;DHT22;1991;48.682;9.030;2023-03-04T16:11:12;3.30;88.50
3954;DHT22;1991;48.682;9.030;2023-03-04T16:13:39;3.30;89.10
3954;DHT22;1991;48.682;9.030;2023-03-04T16:16:08;3.30;89.00
3954;DHT22;1991;48.682;9.030;2023-03-04T16:18:34;3.30;89.40
3954;DHT22;1991;48.682;9.030;2023-03-04T16:20:59;3.30;90.10
3954;DHT22;1991;48.682;9.030;2023-03-04T16:23:25;3.30;90.00
3954;DHT22;1991;48.682;9.030;2023-03-04T16:25:53;3.30;90.20
3954;DHT22;1991;48.682;9.030;2023-03-04T16:28:20;3.20;90.30
3954;DHT22;1991;48.682;9.030;2023-03-04T16:30:46;3.20;90.70
3954;DHT22;1991;48.682;9.030;2023-03-04T16:33:12;3.20;90.80
3954;DHT22;1991;48.682;9.030;2023-03-04T16:35:40;3.10;91.20
3954;DHT22;1991;48.682;9.030;2023-03-04T16:38:20;3.10;91.70
3954;DHT22;1991;48.682;9.030;2023-03-04T16:40:46;3.10;92.00
3954;DHT22;1991;48.682;9.030;2023-03-04T16:43:13;3.00;92.60
3954;DHT22;1991;48.682;9.030;2023-03-04T16:45:39;3.00;92.70
3954;DHT22;1991;48.682;9.030;2023-03-04T16:48:05;2.90;93.10
3954;DHT22;1991;48.682;9.030;2023-03-04T16:50:30;2.90;93.50
3954;DHT22;1991;48.682;9.030;2023-03-04T16:52:56;2.90;94.00
3954;DHT22;1991;48.682;9.030;2023-03-04T16:55:28;2.90;94.30
3954;DHT22;1991;48.682;9.030;2023-03-04T16:57:55;2.90;94.50
3954;DHT22;1991;48.682;9.030;2023-03-04T17:00:24;2.90;95.10
3954;DHT22;1991;48.682;9.030;2023-03-04T17:02:58;2.90;95.30
3954;DHT22;1991;48.682;9.030;2023-03-04T17:05:28;2.80;95.70
3954;DHT22;1991;48.682;9.030;2023-03-04T17:07:53;2.80;96.20
3954;DHT22;1991;48.682;9.030;2023-03-04T17:10:19;2.70;96.80
3954;DHT22;1991;48.682;9.030;2023-03-04T17:12:45;2.70;97.30
3954;DHT22;1991;48.682;9.030;2023-03-04T17:15:13;4.30;98.20
3954;DHT22;1991;48.682;9.030;2023-03-04T17:17:40;2.60;98.10
3954;DHT22;1991;48.682;9.030;2023-03-04T17:20:06;2.60;98.40
3954;DHT22;1991;48.682;9.030;2023-03-04T17:22:33;2.70;98.50
3954;DHT22;1991;48.682;9.030;2023-03-04T17:25:00;2.70;98.80
3954;DHT22;1991;48.682;9.030;2023-03-04T17:27:27;2.70;99.10
3954;DHT22;1991;48.682;9.030;2023-03-04T17:29:53;2.60;99.20
3954;DHT22;1991;48.682;9.030;2023-03-04T17:32:19;2.60;99.30
3954;DHT22;1991;48.682;9.030;2023-03-04T17:34:45;2.60;99.90
3954;DHT22;1991;48.682;9.030;2023-03-04T17:37:11;2.60;99.90
3954;DHT22;1991;48.682;9.030;2023-03-04T17:39:37;2.60;99.90
3954;DHT22;1991;48.682;9.030;2023-03-04T17:42:02;2.60;99.90
3954;DHT22;1991;48.682;9.030;2023-03-04T17:44:28;2.50;99.90
3954;DHT22;1991;48.682;9.030;2023-03-04T17:46:54;2.50;99.90
3954;DHT22;1991;48.682;9.030;2023-03-04T17:49:19;2.50;99.90
3954;DHT22;1991;48.682;9.030;2023-03-04T17:51:45;2.40;99.90
3954;DHT22;1991;48.682;9.030;2023-03-04T17:54:11;2.50;99.90
3954;DHT22;1991;48.682;9.030;2023-03-04T17:56:38;2.50;99.90
3954;DHT22;1991;48.682;9.030;2023-03-04T17:59:07;2.50;99.90
3954;DHT22;1991;48.682;9.030;2023-03-04T18:01:33;2.60;99.90
3954;DHT22;1991;48.682;9.030;2023-03-04T18:03:59;2.50;99.90
3954;DHT22;1991;48.682;9.030;2023-03-04T18:06:24;2.60;99.90
3954;DHT22;1991;48.682;9.030;2023-03-04T18:08:51;2.60;99.90
3954;DHT22;1991;48.682;9.030;2023-03-04T18:11:21;2.60;99.90
3954;DHT22;1991;48.682;9.030;2023-03-04T18:13:48;2.60;99.90
3954;DHT22;1991;48.682;9.030;2023-03-04T18:16:14;2.60;99.90